createdAt,value
2023-02-19T00:01:10.512Z,33.50
2023-02-19T00:03:38.219Z,29.98
2023-02-19T00:06:06.916Z,27.17
2023-02-19T00:08:35.127Z,23.00
2023-02-19T00:11:07.600Z,25.05
2023-02-19T00:13:38.507Z,23.50
2023-02-19T00:16:15.132Z,24.85
2023-02-19T00:18:43.032Z,21.95
2023-02-19T00:21:10.323Z,22.77
2023-02-19T00:23:37.577Z,19.33
2023-02-19T00:26:17.644Z,17.85
2023-02-19T00:28:46.955Z,12.90
2023-02-19T00:31:18.690Z,15.85
2023-02-19T00:33:47.087Z,15.93
2023-02-19T00:36:14.760Z,13.35
2023-02-19T00:38:42.637Z,13.57
2023-02-19T00:41:19.317Z,11.38
2023-02-19T00:44:03.984Z,10.63
2023-02-19T00:46:59.946Z,11.27
2023-02-19T00:49:26.833Z,9.23
2023-02-19T00:51:53.821Z,8.07
2023-02-19T00:54:22.717Z,7.37
2023-02-19T00:56:49.938Z,7.80
2023-02-19T00:59:17.063Z,6.78
2023-02-19T01:01:47.126Z,6.68
2023-02-19T01:04:14.091Z,5.78
2023-02-19T01:06:41.395Z,5.93
2023-02-19T01:09:08.426Z,4.30
2023-02-19T01:11:35.472Z,5.22
2023-02-19T01:14:03.723Z,8.80
2023-02-19T01:16:31.150Z,5.18
2023-02-19T01:18:58.619Z,6.15
2023-02-19T01:21:26.659Z,3.67
2023-02-19T01:23:54.007Z,6.22
2023-02-19T01:26:22.772Z,3.90
2023-02-19T01:28:49.869Z,3.83
2023-02-19T01:31:19.861Z,4.07
2023-02-19T01:33:48.234Z,4.75
2023-02-19T01:36:16.193Z,3.47
2023-02-19T01:38:43.670Z,2.40
2023-02-19T01:41:13.495Z,4.03
2023-02-19T01:43:58.928Z,4.47
2023-02-19T01:46:27.636Z,3.05
2023-02-19T01:48:55.098Z,2.90
2023-02-19T01:51:22.571Z,2.62
2023-02-19T01:53:53.595Z,5.03
2023-02-19T01:56:20.994Z,3.17
2023-02-19T01:58:47.992Z,3.35
2023-02-19T02:01:15.163Z,3.72
2023-02-19T02:03:43.564Z,2.58
2023-02-19T02:06:22.502Z,2.25
2023-02-19T02:09:13.934Z,2.90
2023-02-19T02:11:44.107Z,2.47
2023-02-19T02:14:11.045Z,3.85
2023-02-19T02:17:11.912Z,3.25
2023-02-19T02:19:47.608Z,3.00
2023-02-19T02:22:33.098Z,3.20
2023-02-19T02:25:18.619Z,2.80
2023-02-19T02:28:07.454Z,2.83
2023-02-19T02:30:42.087Z,4.43
2023-02-19T02:33:21.680Z,3.95
2023-02-19T02:35:57.031Z,2.92
2023-02-19T02:38:26.292Z,3.25
2023-02-19T02:40:54.556Z,4.85
2023-02-19T02:43:21.507Z,5.62
2023-02-19T02:45:48.651Z,4.35
2023-02-19T02:48:35.488Z,5.62
2023-02-19T02:51:05.398Z,5.40
2023-02-19T02:54:00.662Z,6.60
2023-02-19T02:56:27.573Z,5.32
2023-02-19T02:58:56.138Z,7.22
2023-02-19T03:01:48.107Z,5.30
2023-02-19T03:04:58.536Z,5.00
2023-02-19T03:07:27.386Z,5.47
2023-02-19T03:09:54.715Z,5.62
2023-02-19T03:12:41.201Z,4.95
2023-02-19T03:15:28.626Z,6.75
2023-02-19T03:18:18.071Z,4.25
2023-02-19T03:20:48.387Z,25.92
2023-02-19T03:23:17.993Z,34.33
2023-02-19T03:26:03.243Z,30.35
2023-02-19T03:28:51.995Z,32.45
2023-02-19T03:31:21.902Z,33.10
2023-02-19T03:33:54.645Z,33.05
2023-02-19T03:36:26.133Z,31.85
2023-02-19T03:39:16.715Z,28.25
2023-02-19T03:41:49.833Z,31.00
2023-02-19T03:44:37.405Z,32.22
2023-02-19T03:47:20.072Z,36.83
2023-02-19T03:49:57.083Z,38.10
2023-02-19T03:52:42.274Z,42.90
2023-02-19T03:55:13.989Z,33.53
2023-02-19T03:57:52.134Z,40.63
2023-02-19T04:00:41.013Z,40.97
2023-02-19T04:03:29.196Z,43.25
2023-02-19T04:06:01.733Z,40.42
2023-02-19T04:08:29.544Z,39.80
2023-02-19T04:10:58.809Z,41.95
2023-02-19T04:13:46.891Z,43.22
2023-02-19T04:16:19.650Z,43.08
2023-02-19T04:18:49.355Z,41.40
2023-02-19T04:21:16.832Z,39.35
2023-02-19T04:23:45.084Z,45.67
2023-02-19T04:26:12.956Z,39.97
2023-02-19T04:28:40.521Z,39.20
2023-02-19T04:31:07.680Z,38.00
2023-02-19T04:33:34.869Z,38.95
2023-02-19T04:36:01.797Z,37.28
2023-02-19T04:38:28.702Z,43.00
2023-02-19T04:40:55.617Z,38.17
2023-02-19T04:43:22.488Z,39.78
2023-02-19T04:45:49.545Z,41.05
2023-02-19T04:48:16.426Z,40.95
2023-02-19T04:50:43.353Z,39.35
2023-02-19T04:53:10.238Z,37.53
2023-02-19T04:55:38.652Z,41.33
2023-02-19T04:58:05.604Z,41.60
2023-02-19T05:00:34.193Z,41.80
2023-02-19T05:03:01.572Z,39.65
2023-02-19T05:05:28.471Z,47.03
2023-02-19T05:07:55.413Z,46.03
2023-02-19T05:10:22.311Z,41.47
2023-02-19T05:12:49.231Z,41.70
2023-02-19T05:15:16.144Z,42.55
2023-02-19T05:17:43.103Z,42.70
2023-02-19T05:20:10.200Z,44.10
2023-02-19T05:22:37.042Z,42.28
2023-02-19T05:27:32.021Z,46.28
2023-02-19T05:29:59.083Z,40.83
2023-02-19T05:32:26.033Z,43.92
2023-02-19T05:34:52.942Z,41.50
2023-02-19T05:37:19.901Z,41.22
2023-02-19T05:39:46.724Z,42.95
2023-02-19T05:44:40.908Z,45.60
2023-02-19T05:47:07.808Z,38.38
2023-02-19T05:49:34.779Z,43.78
2023-02-19T05:52:01.711Z,36.33
2023-02-19T05:54:29.682Z,40.00
2023-02-19T05:56:56.768Z,41.40
2023-02-19T05:59:25.949Z,42.08
2023-02-19T06:01:54.202Z,40.45
2023-02-19T06:04:21.145Z,40.60
2023-02-19T06:06:48.573Z,36.65
2023-02-19T06:09:15.523Z,40.00
2023-02-19T06:11:43.742Z,41.05
2023-02-19T06:14:13.536Z,39.33
2023-02-19T06:16:40.492Z,40.35
2023-02-19T06:19:07.410Z,41.33
2023-02-19T06:21:34.618Z,42.45
2023-02-19T06:24:07.330Z,40.55
2023-02-19T06:26:34.193Z,41.20
2023-02-19T06:31:27.935Z,41.78
2023-02-19T06:33:55.508Z,41.67
2023-02-19T06:36:22.814Z,38.90
2023-02-19T06:38:49.903Z,40.10
2023-02-19T06:41:17.007Z,39.42
2023-02-19T06:43:43.979Z,37.28
2023-02-19T06:46:12.038Z,37.28
2023-02-19T06:48:40.108Z,38.28
2023-02-19T06:51:06.997Z,33.38
2023-02-19T06:53:33.949Z,36.78
2023-02-19T06:56:06.721Z,37.50
2023-02-19T06:58:34.312Z,39.50
2023-02-19T07:01:01.394Z,34.88
2023-02-19T07:03:28.348Z,35.40
2023-02-19T07:05:55.285Z,34.88
2023-02-19T07:08:22.248Z,35.95
2023-02-19T07:10:56.694Z,38.20
2023-02-19T07:13:24.727Z,33.95
2023-02-19T07:15:52.296Z,38.97
2023-02-19T07:18:19.310Z,36.08
2023-02-19T07:20:46.190Z,37.50
2023-02-19T07:23:13.158Z,37.15
2023-02-19T07:25:40.377Z,37.65
2023-02-19T07:28:07.429Z,35.33
2023-02-19T07:30:34.404Z,37.72
2023-02-19T07:33:01.636Z,36.67
2023-02-19T07:35:28.660Z,38.72
2023-02-19T07:37:55.548Z,38.17
2023-02-19T07:40:22.447Z,39.28
2023-02-19T07:42:49.330Z,37.97
2023-02-19T07:45:16.339Z,38.22
2023-02-19T07:47:43.677Z,38.17
2023-02-19T07:50:13.007Z,43.72
2023-02-19T07:52:40.748Z,43.00
2023-02-19T07:57:34.419Z,36.92
2023-02-19T08:02:46.449Z,41.65
2023-02-19T08:05:14.028Z,44.10
2023-02-19T08:07:40.930Z,40.20
2023-02-19T08:10:26.742Z,37.92
2023-02-19T08:13:16.873Z,39.63
2023-02-19T08:15:44.055Z,39.58
2023-02-19T08:18:11.636Z,38.25
2023-02-19T08:23:06.261Z,36.97
2023-02-19T08:25:33.545Z,40.60
2023-02-19T08:28:00.842Z,36.75
2023-02-19T08:30:29.149Z,40.22
2023-02-19T08:32:56.294Z,42.08
2023-02-19T08:35:23.173Z,41.28
2023-02-19T08:37:50.134Z,37.38
2023-02-19T08:40:17.548Z,37.83
2023-02-19T08:42:44.416Z,39.50
2023-02-19T08:45:11.281Z,38.67
2023-02-19T08:47:38.771Z,37.17
2023-02-19T08:50:07.016Z,38.55
2023-02-19T08:52:34.297Z,40.28
2023-02-19T08:55:02.503Z,35.17
2023-02-19T08:57:29.669Z,37.13
2023-02-19T08:59:57.362Z,39.90
2023-02-19T09:02:25.191Z,40.60
2023-02-19T09:04:52.259Z,41.58
2023-02-19T09:07:19.806Z,38.22
2023-02-19T09:09:46.667Z,40.65
2023-02-19T09:12:13.644Z,38.90
2023-02-19T09:14:40.691Z,46.85
2023-02-19T09:17:08.493Z,38.65
2023-02-19T09:19:35.794Z,39.45
2023-02-19T09:22:03.530Z,38.30
2023-02-19T09:24:31.012Z,37.30
2023-02-19T09:26:58.065Z,39.78
2023-02-19T09:29:26.177Z,36.47
2023-02-19T09:31:59.576Z,37.47
2023-02-19T09:34:27.813Z,34.08
2023-02-19T09:36:55.266Z,36.05
2023-02-19T09:39:22.458Z,36.13
2023-02-19T09:41:52.476Z,36.40
2023-02-19T09:44:36.022Z,34.10
2023-02-19T09:47:09.592Z,38.00
2023-02-19T09:49:41.005Z,37.35
2023-02-19T09:52:12.609Z,34.45
2023-02-19T09:54:39.916Z,36.80
2023-02-19T09:57:14.304Z,35.83
2023-02-19T09:59:45.953Z,36.15
2023-02-19T10:02:19.425Z,33.10
2023-02-19T10:04:47.781Z,39.38
2023-02-19T10:07:16.178Z,35.85
2023-02-19T10:09:46.025Z,32.50
2023-02-19T10:12:18.552Z,35.67
2023-02-19T10:14:51.693Z,35.10
2023-02-19T10:17:24.490Z,33.60
2023-02-19T10:19:52.302Z,35.72
2023-02-19T10:22:19.956Z,34.03
2023-02-19T10:24:51.897Z,34.78
2023-02-19T10:27:19.300Z,31.90
2023-02-19T10:29:48.267Z,33.75
2023-02-19T10:32:24.369Z,29.83
2023-02-19T10:35:26.551Z,30.60
2023-02-19T10:37:53.428Z,30.58
2023-02-19T10:40:22.899Z,27.83
2023-02-19T10:42:56.596Z,32.60
2023-02-19T10:45:26.665Z,28.23
2023-02-19T10:47:53.570Z,28.08
2023-02-19T10:50:30.490Z,31.27
2023-02-19T10:52:58.931Z,27.30
2023-02-19T10:55:29.111Z,30.23
2023-02-19T10:57:56.742Z,27.02
2023-02-19T11:00:27.568Z,28.12
2023-02-19T11:03:15.175Z,28.90
2023-02-19T11:05:51.924Z,29.98
2023-02-19T11:08:22.945Z,20.98
2023-02-19T11:10:50.169Z,28.30
2023-02-19T11:13:30.575Z,22.75
2023-02-19T11:15:57.699Z,22.70
2023-02-19T11:18:29.799Z,20.58
2023-02-19T11:21:05.033Z,23.12
2023-02-19T11:23:33.275Z,21.05
2023-02-19T11:26:04.364Z,20.50
2023-02-19T11:28:40.509Z,20.37
2023-02-19T11:31:16.446Z,21.42
2023-02-19T11:33:53.824Z,18.52
2023-02-19T11:38:50.435Z,18.17
2023-02-19T11:41:26.645Z,15.57
2023-02-19T11:44:05.698Z,13.23
2023-02-19T11:46:42.074Z,14.55
2023-02-19T11:49:26.429Z,13.82
2023-02-19T11:52:08.794Z,12.88
2023-02-19T11:54:48.815Z,13.52
2023-02-19T11:57:21.670Z,16.20
2023-02-19T11:59:56.195Z,14.32
2023-02-19T12:02:28.650Z,14.90
2023-02-19T12:05:12.029Z,13.95
2023-02-19T12:08:03.926Z,12.60
2023-02-19T12:10:36.702Z,12.15
2023-02-19T12:13:25.379Z,10.25
2023-02-19T12:16:25.789Z,10.52
2023-02-19T12:18:58.563Z,8.02
2023-02-19T12:21:25.358Z,6.72
2023-02-19T12:24:12.035Z,7.62
2023-02-19T12:27:00.375Z,7.72
2023-02-19T12:29:47.151Z,7.55
2023-02-19T12:32:26.118Z,9.23
2023-02-19T12:35:16.300Z,6.18
2023-02-19T12:38:04.779Z,5.97
2023-02-19T12:40:31.553Z,5.57
2023-02-19T12:45:39.258Z,8.40
2023-02-19T12:48:27.284Z,8.07
2023-02-19T12:50:58.161Z,7.53
2023-02-19T12:53:45.834Z,9.15
2023-02-19T12:56:21.480Z,7.93
2023-02-19T12:58:55.264Z,8.07
2023-02-19T13:01:32.970Z,20.60
2023-02-19T13:04:17.741Z,9.65
2023-02-19T13:07:13.499Z,8.18
2023-02-19T13:09:53.497Z,8.77
2023-02-19T13:12:25.334Z,7.12
2023-02-19T13:15:01.054Z,7.87
2023-02-19T13:17:47.137Z,7.22
2023-02-19T13:20:27.611Z,9.32
2023-02-19T13:23:33.497Z,7.60
2023-02-19T13:26:12.033Z,8.75
2023-02-19T13:29:07.809Z,8.13
2023-02-19T13:32:02.662Z,7.68
2023-02-19T13:35:04.753Z,8.07
2023-02-19T13:37:35.338Z,7.50
2023-02-19T13:40:31.808Z,6.57
2023-02-19T13:43:00.981Z,6.72
2023-02-19T13:45:36.789Z,4.07
2023-02-19T13:48:23.865Z,3.55
2023-02-19T13:51:13.624Z,3.78
2023-02-19T13:53:46.254Z,4.10
2023-02-19T13:56:34.458Z,6.05
2023-02-19T13:59:19.997Z,4.57
2023-02-19T14:01:49.744Z,3.53
2023-02-19T14:04:23.821Z,3.67
2023-02-19T14:07:06.141Z,3.67
2023-02-19T14:09:43.984Z,3.50
2023-02-19T14:12:10.837Z,3.85
2023-02-19T14:14:41.858Z,7.20
2023-02-19T14:17:08.694Z,3.50
2023-02-19T14:19:41.570Z,3.22
2023-02-19T14:23:03.553Z,1.17
2023-02-19T14:25:49.660Z,1.20
2023-02-19T14:28:30.162Z,0.35
2023-02-19T14:31:18.119Z,0.80
2023-02-19T14:33:49.062Z,0.90
2023-02-19T14:36:48.910Z,0.73
2023-02-19T14:39:15.837Z,0.88
2023-02-19T14:41:46.236Z,1.00
2023-02-19T14:44:18.604Z,1.17
2023-02-19T14:47:14.083Z,0.37
2023-02-19T14:49:51.796Z,0.85
2023-02-19T14:52:28.515Z,1.95
2023-02-19T14:54:59.132Z,0.43
2023-02-19T14:57:46.813Z,0.37
2023-02-19T15:00:22.391Z,0.95
2023-02-19T15:02:53.349Z,0.28
2023-02-19T15:05:31.414Z,1.10
2023-02-19T15:08:00.689Z,0.52
2023-02-19T15:10:29.112Z,0.40
2023-02-19T15:13:05.155Z,0.40
2023-02-19T15:15:35.615Z,0.43
2023-02-19T15:18:04.003Z,1.30
2023-02-19T15:20:36.407Z,0.52
2023-02-19T15:23:06.329Z,0.52
2023-02-19T15:25:43.359Z,0.62
2023-02-19T15:28:25.587Z,0.47
2023-02-19T15:31:07.837Z,0.50
2023-02-19T15:33:35.099Z,0.45
2023-02-19T15:36:05.637Z,0.55
2023-02-19T15:38:33.627Z,0.45
2023-02-19T15:41:01.457Z,0.80
2023-02-19T15:43:44.598Z,0.45
2023-02-19T15:46:22.073Z,0.50
2023-02-19T15:49:16.387Z,0.65
2023-02-19T15:51:57.027Z,0.88
2023-02-19T15:54:29.524Z,3.33
2023-02-19T15:57:00.512Z,2.22
2023-02-19T15:59:36.955Z,0.60
2023-02-19T16:02:04.574Z,1.23
2023-02-19T16:04:31.603Z,1.85
2023-02-19T16:07:01.308Z,0.70
2023-02-19T16:09:37.233Z,1.00
2023-02-19T16:12:20.372Z,0.82
2023-02-19T16:14:47.451Z,1.23
2023-02-19T16:17:18.321Z,1.70
2023-02-19T16:20:02.260Z,0.85
2023-02-19T16:22:31.348Z,0.82
2023-02-19T16:25:03.984Z,1.70
2023-02-19T16:27:38.776Z,0.65
2023-02-19T16:30:19.063Z,0.85
2023-02-19T16:32:47.041Z,4.75
2023-02-19T16:35:42.413Z,4.37
2023-02-19T16:38:27.327Z,1.45
2023-02-19T16:41:05.610Z,2.87
2023-02-19T16:43:41.023Z,1.58
2023-02-19T16:46:10.526Z,1.30
2023-02-19T16:48:37.659Z,0.65
2023-02-19T16:51:08.633Z,2.37
2023-02-19T16:53:35.749Z,0.90
2023-02-19T16:56:02.755Z,1.67
2023-02-19T16:58:29.667Z,1.90
2023-02-19T17:00:56.693Z,1.60
2023-02-19T17:03:25.083Z,1.40
2023-02-19T17:05:52.573Z,1.15
2023-02-19T17:08:37.830Z,1.30
2023-02-19T17:11:07.806Z,2.90
2023-02-19T17:13:34.791Z,1.02
2023-02-19T17:16:02.129Z,0.60
2023-02-19T17:18:29.493Z,1.15
2023-02-19T17:21:14.986Z,0.93
2023-02-19T17:23:42.036Z,1.05
2023-02-19T17:26:14.715Z,2.33
2023-02-19T17:28:41.632Z,0.50
2023-02-19T17:31:11.108Z,0.40
2023-02-19T17:33:38.816Z,0.80
2023-02-19T17:36:06.211Z,0.77
2023-02-19T17:38:33.081Z,1.90
2023-02-19T17:40:59.967Z,1.75
2023-02-19T17:43:26.838Z,1.65
2023-02-19T17:45:53.762Z,0.80
2023-02-19T17:48:20.630Z,0.77
2023-02-19T17:50:49.426Z,1.45
2023-02-19T17:53:16.487Z,1.55
2023-02-19T17:55:43.375Z,1.02
2023-02-19T17:58:10.383Z,1.85
2023-02-19T18:00:37.526Z,1.83
2023-02-19T18:03:04.994Z,1.00
2023-02-19T18:05:31.894Z,2.17
2023-02-19T18:07:58.928Z,1.33
2023-02-19T18:10:25.798Z,1.02
2023-02-19T18:12:52.880Z,2.00
2023-02-19T18:15:26.993Z,0.60
2023-02-19T18:17:54.844Z,1.12
2023-02-19T18:20:23.888Z,0.50
2023-02-19T18:22:51.191Z,0.90
2023-02-19T18:25:18.872Z,0.55
2023-02-19T18:27:45.789Z,1.95
2023-02-19T18:30:15.704Z,0.55
2023-02-19T18:32:42.808Z,0.85
2023-02-19T18:35:09.917Z,0.40
2023-02-19T18:37:36.978Z,0.40
2023-02-19T18:40:05.050Z,1.55
2023-02-19T18:42:31.976Z,0.43
2023-02-19T18:44:59.314Z,0.40
2023-02-19T18:47:26.812Z,0.62
2023-02-19T18:49:55.457Z,0.62
2023-02-19T18:52:26.590Z,0.75
2023-02-19T18:54:55.264Z,0.47
2023-02-19T18:57:23.419Z,0.73
2023-02-19T18:59:50.590Z,0.98
2023-02-19T19:02:18.167Z,1.12
2023-02-19T19:04:49.540Z,0.55
2023-02-19T19:07:16.541Z,0.70
2023-02-19T19:09:43.442Z,1.10
2023-02-19T19:12:10.326Z,0.77
2023-02-19T19:17:04.534Z,1.58
2023-02-19T19:19:31.585Z,1.87
2023-02-19T19:21:58.480Z,1.45
2023-02-19T19:24:25.583Z,1.52
2023-02-19T19:26:53.716Z,1.17
2023-02-19T19:29:22.244Z,3.45
2023-02-19T19:31:49.728Z,1.48
2023-02-19T19:34:17.218Z,1.77
2023-02-19T19:36:44.126Z,1.92
2023-02-19T19:39:11.018Z,2.33
2023-02-19T19:41:37.908Z,3.37
2023-02-19T19:44:05.961Z,2.35
2023-02-19T19:46:33.718Z,2.08
2023-02-19T19:49:02.509Z,2.40
2023-02-19T19:51:35.438Z,1.58
2023-02-19T19:54:04.233Z,1.55
2023-02-19T19:56:31.617Z,1.70
2023-02-19T19:58:58.519Z,2.62
2023-02-19T20:01:25.449Z,1.65
2023-02-19T20:03:52.387Z,3.53
2023-02-19T20:06:27.421Z,2.92
2023-02-19T20:08:54.729Z,3.97
2023-02-19T20:11:21.625Z,2.53
2023-02-19T20:13:48.609Z,4.78
2023-02-19T20:16:15.674Z,3.67
2023-02-19T20:18:42.584Z,2.83
2023-02-19T20:21:10.462Z,3.92
2023-02-19T20:23:40.553Z,4.65
2023-02-19T20:26:07.865Z,3.83
2023-02-19T20:28:34.697Z,6.18
2023-02-19T20:33:28.320Z,6.05
2023-02-19T20:35:57.119Z,5.87
2023-02-19T20:38:24.070Z,5.78
2023-02-19T20:40:51.105Z,5.95
2023-02-19T20:43:18.025Z,6.12
2023-02-19T20:45:46.643Z,4.68
2023-02-19T20:48:18.025Z,4.95
2023-02-19T20:50:44.916Z,5.68
2023-02-19T20:53:12.128Z,4.40
2023-02-19T20:55:39.179Z,5.05
2023-02-19T20:58:06.116Z,5.35
2023-02-19T21:00:32.966Z,5.62
2023-02-19T21:05:26.541Z,6.05
2023-02-19T21:07:53.459Z,5.68
2023-02-19T21:10:20.358Z,6.12
2023-02-19T21:12:47.237Z,4.53
2023-02-19T21:15:14.930Z,5.32
2023-02-19T21:17:45.046Z,5.37
2023-02-19T21:20:12.201Z,6.12
2023-02-19T21:22:39.078Z,6.18
2023-02-19T21:25:06.397Z,6.00
2023-02-19T21:27:33.260Z,7.20
2023-02-19T21:32:26.969Z,6.32
2023-02-19T21:34:53.990Z,6.55
2023-02-19T21:37:20.918Z,5.97
2023-02-19T21:39:47.808Z,7.18
2023-02-19T21:42:14.688Z,7.65
2023-02-19T21:44:43.074Z,6.87
2023-02-19T21:47:11.761Z,5.75
2023-02-19T21:49:38.771Z,7.50
2023-02-19T21:52:05.636Z,4.65
2023-02-19T21:54:32.532Z,6.95
2023-02-19T21:57:02.221Z,6.65
2023-02-19T21:59:29.109Z,6.47
2023-02-19T22:01:57.254Z,5.62
2023-02-19T22:04:27.512Z,4.93
2023-02-19T22:06:57.525Z,4.57
2023-02-19T22:09:24.470Z,6.10
2023-02-19T22:11:51.435Z,5.82
2023-02-19T22:14:18.388Z,5.47
2023-02-19T22:16:45.317Z,6.10
2023-02-19T22:19:12.999Z,4.90
2023-02-19T22:21:43.318Z,4.28
2023-02-19T22:24:15.144Z,4.97
2023-02-19T22:26:42.731Z,3.85
2023-02-19T22:29:11.518Z,4.43
2023-02-19T22:31:38.741Z,4.95
2023-02-19T22:34:05.794Z,3.87
2023-02-19T22:36:33.696Z,3.87
2023-02-19T22:39:01.575Z,4.10
2023-02-19T22:41:28.759Z,4.25
2023-02-19T22:43:56.470Z,5.47
2023-02-19T22:46:25.204Z,4.05
2023-02-19T22:48:52.062Z,5.10
2023-02-19T22:56:16.078Z,5.20
2023-02-19T22:58:43.633Z,5.15
2023-02-19T23:01:12.190Z,3.97
2023-02-19T23:03:50.018Z,4.47
2023-02-19T23:06:17.837Z,3.92
2023-02-19T23:08:44.824Z,5.50
2023-02-19T23:11:13.333Z,4.40
2023-02-19T23:13:43.086Z,5.90
2023-02-19T23:16:10.239Z,4.55
2023-02-19T23:18:37.346Z,4.47
2023-02-19T23:21:04.337Z,5.28
2023-02-19T23:23:31.239Z,4.90
2023-02-19T23:25:58.110Z,5.55
2023-02-19T23:28:25.051Z,4.72
2023-02-19T23:30:52.054Z,4.40
2023-02-19T23:33:18.955Z,5.82
2023-02-19T23:38:12.651Z,6.18
2023-02-19T23:40:39.551Z,4.30
2023-02-19T23:43:06.476Z,5.85
2023-02-19T23:45:33.370Z,4.35
2023-02-19T23:48:00.394Z,4.05
2023-02-19T23:50:27.277Z,4.78
2023-02-19T23:52:56.472Z,6.45
2023-02-19T23:55:23.518Z,4.43
2023-02-19T23:57:52.180Z,3.40
